Time;durP1;ratioP1;P1;durP2;ratioP2;P2;SDS_P1;SDS_P2;PMS_P1;PMS_P2;Temp;Humidity;BMP_temperature;BMP_pressure;BME280_temperature;BME280_humidity;BME280_pressure;Samples;Min_cycle;Max_cycle;Signal;HPM_P1;HPM_P2
2021/11/10 00:00:25;;;;;;;13.90;7.32;;;9.50;67.10;;;;;;5051251;28;20090;-58
2021/11/10 00:02:51;;;;;;;16.02;8.02;;;9.50;67.00;;;;;;5034018;28;20043;-59
2021/11/10 00:05:18;;;;;;;12.43;7.85;;;9.50;67.00;;;;;;5051061;28;20025;-59
2021/11/10 00:07:44;;;;;;;12.07;7.20;;;9.50;66.90;;;;;;5051552;28;20029;-60
2021/11/10 00:10:12;;;;;;;11.35;7.35;;;9.50;66.50;;;;;;5050886;28;20127;-59
2021/11/10 00:12:39;;;;;;;14.75;7.63;;;9.60;66.40;;;;;;5033774;28;20525;-59
2021/11/10 00:15:06;;;;;;;10.98;6.90;;;9.50;66.30;;;;;;5033232;28;20021;-59
2021/11/10 00:17:32;;;;;;;12.63;7.60;;;9.50;66.30;;;;;;5033590;28;20025;-59
2021/11/10 00:19:57;;;;;;;13.30;7.70;;;9.50;66.40;;;;;;5051468;28;20075;-61
2021/11/10 00:22:25;;;;;;;13.77;7.78;;;9.50;66.50;;;;;;5050019;28;20463;-59
2021/11/10 00:24:51;;;;;;;13.43;7.57;;;9.40;66.60;;;;;;5051175;28;20504;-55
2021/11/10 00:27:17;;;;;;;11.77;7.55;;;9.40;66.60;;;;;;5050964;28;20033;-57
2021/11/10 00:29:43;;;;;;;12.20;7.13;;;9.40;66.50;;;;;;5033697;28;20033;-62
2021/11/10 00:32:08;;;;;;;10.18;7.25;;;9.40;66.30;;;;;;5051031;28;20025;-59
2021/11/10 00:34:34;;;;;;;11.82;6.40;;;9.50;66.30;;;;;;5051946;28;20021;-59
2021/11/10 00:37:00;;;;;;;13.80;7.07;;;9.50;66.30;;;;;;5033318;28;20029;-59
2021/11/10 00:39:26;;;;;;;11.80;6.72;;;9.50;66.30;;;;;;5032935;28;20036;-60
2021/11/10 00:41:52;;;;;;;14.75;7.22;;;9.50;66.30;;;;;;5034546;28;20025;-60
2021/11/10 00:44:17;;;;;;;10.48;7.15;;;9.40;66.30;;;;;;5054575;28;20382;-55
2021/11/10 00:46:43;;;;;;;13.05;7.28;;;9.40;66.70;;;;;;5055000;28;20044;-59
2021/11/10 00:49:09;;;;;;;12.85;7.72;;;9.30;67.00;;;;;;5054507;28;20025;-58
2021/11/10 00:51:35;;;;;;;14.88;8.23;;;9.30;67.30;;;;;;5055319;28;20481;-59
2021/11/10 00:54:00;;;;;;;11.68;7.57;;;9.20;67.30;;;;;;5054265;28;20137;-57
2021/11/10 00:56:26;;;;;;;11.15;8.00;;;9.30;67.40;;;;;;5054261;28;20068;-55
2021/11/10 00:58:52;;;;;;;17.20;7.97;;;9.30;67.60;;;;;;5054710;28;20087;-58
2021/11/10 01:01:18;;;;;;;12.38;7.70;;;9.20;67.60;;;;;;5053955;28;20029;-62
2021/11/10 01:03:44;;;;;;;14.30;8.25;;;9.20;67.80;;;;;;5054646;28;20085;-60
2021/11/10 01:06:10;;;;;;;13.95;8.40;;;9.20;68.10;;;;;;5053952;28;20056;-60
2021/11/10 01:08:36;;;;;;;14.95;8.52;;;9.20;68.20;;;;;;5055160;28;20061;-55
2021/11/10 01:11:02;;;;;;;15.05;8.52;;;9.20;68.40;;;;;;5054688;28;20493;-60
2021/11/10 01:13:28;;;;;;;13.13;8.82;;;9.10;68.60;;;;;;5053903;28;20417;-58
2021/11/10 01:15:54;;;;;;;14.88;9.00;;;9.10;68.80;;;;;;5035848;28;20087;-57
2021/11/10 01:18:20;;;;;;;13.45;9.32;;;9.10;69.20;;;;;;5053424;28;20029;-61
2021/11/10 01:20:46;;;;;;;11.90;8.80;;;9.10;69.50;;;;;;5054058;28;20033;-59
2021/11/10 01:23:12;;;;;;;15.27;9.38;;;9.00;69.90;;;;;;5053895;28;20104;-62
2021/11/10 01:25:38;;;;;;;13.38;9.57;;;9.10;69.90;;;;;;5052814;28;20029;-54
2021/11/10 01:28:07;;;;;;;14.23;9.65;;;9.10;70.10;;;;;;5035041;28;20032;-66
2021/11/10 01:30:33;;;;;;;16.90;10.70;;;9.00;70.50;;;;;;5053516;28;20087;-60
2021/11/10 01:32:59;;;;;;;19.27;9.75;;;9.00;70.60;;;;;;5053463;28;20053;-60
2021/11/10 01:35:25;;;;;;;16.27;11.05;;;9.00;70.60;;;;;;5034879;28;20261;-58
2021/11/10 01:37:51;;;;;;;17.02;9.95;;;9.10;70.80;;;;;;5054109;28;20029;-60
2021/11/10 01:40:19;;;;;;;17.73;10.98;;;9.00;70.90;;;;;;5053475;28;20033;-55
2021/11/10 01:42:46;;;;;;;15.88;10.27;;;9.00;71.20;;;;;;5036116;28;20056;-59
2021/11/10 01:45:14;;;;;;;18.83;10.73;;;9.00;71.50;;;;;;5053519;28;20029;-56
2021/11/10 01:47:41;;;;;;;13.38;10.05;;;9.00;71.40;;;;;;5053485;28;20036;-61
2021/11/10 01:50:11;;;;;;;18.08;10.68;;;9.00;71.60;;;;;;5035522;28;20056;-61
2021/11/10 01:52:37;;;;;;;18.65;11.18;;;9.00;71.60;;;;;;5035893;28;20363;-61
2021/11/10 01:55:05;;;;;;;14.70;10.48;;;9.00;71.60;;;;;;5053581;28;20098;-59
2021/11/10 01:57:31;;;;;;;17.63;10.90;;;9.00;71.70;;;;;;5052439;28;20064;-59
2021/11/10 02:00:26;;;;;;;17.20;11.00;;;8.90;71.80;;;;;;5035752;28;20462;-61
2021/11/10 02:02:53;;;;;;;18.90;11.20;;;9.00;71.80;;;;;;5052806;28;20029;-61
2021/11/10 02:05:20;;;;;;;16.10;11.63;;;8.90;72.10;;;;;;5034701;28;20025;-60
2021/11/10 02:07:47;;;;;;;15.02;10.48;;;9.00;72.10;;;;;;5053585;28;20085;-61
2021/11/10 02:10:15;;;;;;;15.38;10.40;;;8.90;72.10;;;;;;5035143;28;20419;-61
2021/11/10 02:12:43;;;;;;;16.73;11.48;;;9.00;72.30;;;;;;5053592;28;20025;-61
2021/11/10 02:15:12;;;;;;;16.45;11.43;;;8.90;72.60;;;;;;5035152;28;20071;-56
2021/11/10 02:17:38;;;;;;;20.85;11.80;;;8.90;72.50;;;;;;5053444;28;20024;-54
2021/11/10 02:20:10;;;;;;;15.02;10.13;;;8.90;73.20;;;;;;5053519;28;20446;-50
2021/11/10 02:22:38;;;;;;;17.05;11.43;;;8.90;72.80;;;;;;5053333;28;20036;-54
2021/11/10 02:25:08;;;;;;;19.92;11.57;;;8.90;72.80;;;;;;5053294;28;20025;-60
2021/11/10 02:27:35;;;;;;;16.67;11.68;;;8.90;72.90;;;;;;5053398;28;20052;-57
2021/11/10 02:30:16;;;;;;;19.10;11.45;;;8.90;72.90;;;;;;5053219;28;20041;-56
2021/11/10 02:32:56;;;;;;;17.45;10.63;;;8.90;73.10;;;;;;5053217;28;20104;-59
2021/11/10 02:35:25;;;;;;;18.08;11.88;;;8.90;73.10;;;;;;5052289;28;20021;-59
2021/11/10 02:37:55;;;;;;;19.65;12.60;;;8.90;73.20;;;;;;5053027;28;20021;-60
2021/11/10 02:40:22;;;;;;;17.50;10.93;;;8.90;73.10;;;;;;5052245;28;20086;-51
2021/11/10 02:42:50;;;;;;;18.55;11.38;;;8.90;73.00;;;;;;5052702;28;20032;-60
2021/11/10 02:45:16;;;;;;;16.35;11.57;;;8.90;73.10;;;;;;5052563;28;20451;-55
2021/11/10 02:47:43;;;;;;;15.70;11.40;;;9.00;73.10;;;;;;5034986;28;20470;-56
2021/11/10 02:50:10;;;;;;;16.70;11.50;;;9.00;73.00;;;;;;5052687;28;20501;-60
2021/11/10 02:52:36;;;;;;;17.40;11.43;;;9.00;73.20;;;;;;5034970;28;20033;-58
2021/11/10 02:55:04;;;;;;;17.27;11.75;;;8.90;73.30;;;;;;5052310;28;20049;-56
2021/11/10 02:57:30;;;;;;;17.63;11.88;;;8.90;73.40;;;;;;5034406;28;20078;-62
2021/11/10 02:59:56;;;;;;;19.15;12.20;;;8.90;73.50;;;;;;5052374;28;20521;-59
2021/11/10 03:02:29;;;;;;;22.77;12.55;;;8.90;73.50;;;;;;5052173;28;20056;-60
2021/11/10 03:04:56;;;;;;;22.55;12.75;;;8.90;73.50;;;;;;5052053;28;20082;-62
2021/11/10 03:07:22;;;;;;;23.13;13.07;;;8.90;73.60;;;;;;5052027;28;20057;-53
2021/11/10 03:09:48;;;;;;;17.88;12.73;;;8.80;73.70;;;;;;5052254;28;20028;-52
2021/11/10 03:12:16;;;;;;;24.73;13.27;;;8.80;73.70;;;;;;5051759;28;20021;-62
2021/11/10 03:14:43;;;;;;;18.10;12.40;;;8.80;73.70;;;;;;5052490;28;20060;-60
2021/11/10 03:17:12;;;;;;;18.50;12.65;;;8.80;73.70;;;;;;5052040;28;20025;-62
2021/11/10 03:19:39;;;;;;;21.27;12.48;;;8.80;74.00;;;;;;5051469;28;20029;-60
2021/11/10 03:22:06;;;;;;;19.80;12.57;;;8.80;74.00;;;;;;5034315;28;20037;-60
2021/11/10 03:24:33;;;;;;;23.13;12.50;;;8.80;74.10;;;;;;5051547;28;20378;-56
2021/11/10 03:26:59;;;;;;;19.85;12.07;;;8.70;74.20;;;;;;5051917;28;20021;-59
2021/11/10 03:29:26;;;;;;;15.75;12.25;;;8.80;74.10;;;;;;5050753;28;20036;-54
2021/11/10 03:31:53;;;;;;;19.25;12.63;;;8.80;74.10;;;;;;5033965;28;20056;-61
2021/11/10 03:34:20;;;;;;;15.77;12.30;;;8.70;74.30;;;;;;5051166;28;20115;-52
2021/11/10 03:36:47;;;;;;;18.70;12.20;;;8.80;74.30;;;;;;5034269;28;20043;-51
2021/11/10 03:39:15;;;;;;;17.95;12.15;;;8.70;74.40;;;;;;5034029;28;20029;-58
2021/11/10 03:41:41;;;;;;;20.48;13.05;;;8.70;74.50;;;;;;5051671;28;20033;-59
2021/11/10 03:44:08;;;;;;;18.70;12.60;;;8.70;74.50;;;;;;5052029;28;20429;-55
2021/11/10 03:46:34;;;;;;;23.73;13.88;;;8.70;74.50;;;;;;5051051;28;20580;-49
2021/11/10 03:49:00;;;;;;;20.15;12.30;;;8.80;74.60;;;;;;5034295;28;20029;-59
2021/11/10 03:51:27;;;;;;;18.20;12.30;;;8.70;74.80;;;;;;5051645;28;20151;-60
2021/11/10 03:53:54;;;;;;;17.85;12.85;;;8.70;75.00;;;;;;5051518;28;20390;-60
2021/11/10 03:56:21;;;;;;;16.33;12.35;;;8.70;74.90;;;;;;5051345;28;20053;-57
2021/11/10 03:58:47;;;;;;;19.90;12.65;;;8.70;75.00;;;;;;5051816;28;20032;-61
2021/11/10 04:01:14;;;;;;;21.20;13.20;;;8.70;75.20;;;;;;5033721;28;20029;-53
2021/11/10 04:03:41;;;;;;;17.13;12.02;;;8.70;75.20;;;;;;5051840;28;20056;-63
2021/11/10 04:06:07;;;;;;;19.05;13.27;;;8.70;75.30;;;;;;5051453;28;20077;-58
2021/11/10 04:08:33;;;;;;;24.95;13.63;;;8.70;75.40;;;;;;5051042;28;20063;-59
2021/11/10 04:11:00;;;;;;;16.70;12.40;;;8.70;75.50;;;;;;5034137;28;20040;-55
2021/11/10 04:13:27;;;;;;;17.35;12.95;;;8.70;75.60;;;;;;5051194;28;20100;-60
2021/11/10 04:15:53;;;;;;;18.83;13.55;;;8.60;76.20;;;;;;5052097;28;20032;-60
2021/11/10 04:18:19;;;;;;;18.00;13.05;;;8.60;76.00;;;;;;5055327;28;20029;-62
2021/11/10 04:20:45;;;;;;;19.10;13.40;;;8.60;76.30;;;;;;5055207;28;20084;-58
2021/11/10 04:23:11;;;;;;;20.25;13.00;;;8.60;76.20;;;;;;5055597;28;20029;-62
2021/11/10 04:25:37;;;;;;;23.83;14.10;;;8.50;76.40;;;;;;5037272;28;20363;-58
2021/11/10 04:28:05;;;;;;;25.02;13.98;;;8.50;76.60;;;;;;5055737;28;20032;-59
2021/11/10 04:30:30;;;;;;;21.40;13.50;;;8.50;76.50;;;;;;5055056;28;20035;-58
2021/11/10 04:32:56;;;;;;;19.92;13.93;;;8.50;76.80;;;;;;5037902;28;20021;-60
2021/11/10 04:35:22;;;;;;;21.65;14.20;;;8.50;77.00;;;;;;5054989;28;20074;-60
2021/11/10 04:37:48;;;;;;;22.10;13.68;;;8.40;77.20;;;;;;5055325;28;20025;-60
2021/11/10 04:40:14;;;;;;;20.08;14.98;;;8.50;77.30;;;;;;5055178;28;20037;-57
2021/11/10 04:42:40;;;;;;;21.08;13.52;;;8.50;77.30;;;;;;5054714;28;20114;-59
2021/11/10 04:45:12;;;;;;;21.00;14.70;;;8.40;78.00;;;;;;5055583;28;20033;-58
2021/11/10 04:47:38;;;;;;;21.85;14.43;;;8.50;77.20;;;;;;5054770;28;20021;-60
2021/11/10 04:50:06;;;;;;;22.02;14.90;;;8.50;77.10;;;;;;5055037;28;20025;-54
2021/11/10 04:52:34;;;;;;;27.55;15.18;;;8.50;77.00;;;;;;5020245;28;20390;-53
2021/11/10 04:55:01;;;;;;;20.08;14.60;;;8.60;76.90;;;;;;5054979;28;20095;-60
2021/11/10 04:57:26;;;;;;;23.83;14.27;;;8.50;77.00;;;;;;5054190;28;20025;-57
2021/11/10 04:59:52;;;;;;;22.35;15.38;;;8.50;77.20;;;;;;5036792;28;20021;-59
2021/11/10 05:04:43;;;;;;;21.27;14.10;;;8.50;77.00;;;;;;5054262;28;20035;-59
2021/11/10 05:07:13;;;;;;;22.00;15.68;;;8.50;77.10;;;;;;5036804;28;20017;-56
2021/11/10 05:09:39;;;;;;;24.17;15.27;;;8.40;77.30;;;;;;5054193;28;20021;-54
2021/11/10 05:12:06;;;;;;;20.05;14.75;;;8.40;77.30;;;;;;5036570;28;20029;-58
2021/11/10 05:14:32;;;;;;;25.65;15.02;;;8.40;77.50;;;;;;5036049;28;20124;-56
2021/11/10 05:16:57;;;;;;;20.13;14.75;;;8.30;77.50;;;;;;5054444;28;20032;-59
2021/11/10 05:19:23;;;;;;;21.25;15.10;;;8.30;77.40;;;;;;5053786;28;20442;-65
2021/11/10 05:21:50;;;;;;;21.55;15.18;;;8.40;77.50;;;;;;5020116;28;20086;-59
2021/11/10 05:24:15;;;;;;;21.90;14.73;;;8.40;77.50;;;;;;5054501;28;20103;-61
2021/11/10 05:26:42;;;;;;;22.23;15.02;;;8.40;77.50;;;;;;5035432;28;20075;-56
2021/11/10 05:29:08;;;;;;;20.33;13.75;;;8.30;77.30;;;;;;5054137;28;20044;-52
2021/11/10 05:31:35;;;;;;;21.92;13.13;;;8.30;77.50;;;;;;5053366;28;20037;-55
2021/11/10 05:34:01;;;;;;;24.05;14.38;;;8.30;77.70;;;;;;5054087;28;20036;-59
2021/11/10 05:36:27;;;;;;;23.38;13.95;;;8.30;77.70;;;;;;5035695;28;20063;-56
2021/11/10 05:38:53;;;;;;;26.95;14.10;;;8.20;77.70;;;;;;5054413;28;20057;-60
2021/11/10 05:41:19;;;;;;;24.00;14.68;;;8.20;77.80;;;;;;5036122;28;20029;-56
2021/11/10 05:43:45;;;;;;;18.67;13.40;;;8.20;77.80;;;;;;5053296;28;20032;-60
2021/11/10 05:46:10;;;;;;;17.40;12.20;;;8.10;77.80;;;;;;5054029;28;20078;-58
2021/11/10 05:48:36;;;;;;;22.98;13.55;;;8.20;77.80;;;;;;5053297;28;20462;-59
2021/11/10 05:51:04;;;;;;;17.40;12.80;;;8.20;77.70;;;;;;5053869;28;20033;-60
2021/11/10 05:53:32;;;;;;;20.00;12.77;;;8.20;77.70;;;;;;5053153;28;20033;-61
2021/11/10 05:55:59;;;;;;;17.88;13.30;;;8.20;77.60;;;;;;5072062;28;20123;-60
2021/11/10 05:58:32;;;;;;;21.08;13.52;;;8.20;77.40;;;;;;5073542;28;20454;-61
2021/11/10 06:00:59;;;;;;;19.35;12.25;;;8.20;77.30;;;;;;5074183;28;20036;-60
2021/11/10 06:03:25;;;;;;;18.20;13.18;;;8.20;77.30;;;;;;5073244;28;20029;-63
2021/11/10 06:05:54;;;;;;;19.45;12.80;;;8.10;77.30;;;;;;5072670;28;20032;-58
2021/11/10 06:08:20;;;;;;;18.55;12.98;;;8.20;77.30;;;;;;5072935;28;20123;-60
2021/11/10 06:10:47;;;;;;;19.27;12.05;;;8.20;77.10;;;;;;5072032;28;20436;-61
2021/11/10 06:13:13;;;;;;;19.10;12.52;;;8.20;77.30;;;;;;5073652;28;20032;-57
2021/11/10 06:15:38;;;;;;;21.65;12.75;;;8.20;77.10;;;;;;5071825;28;20043;-61
2021/11/10 06:18:06;;;;;;;17.80;12.88;;;8.20;77.00;;;;;;5072568;28;20497;-61
2021/11/10 06:20:34;;;;;;;20.80;12.32;;;8.20;77.00;;;;;;5073213;28;20037;-61
2021/11/10 06:22:59;;;;;;;16.42;11.75;;;8.20;76.80;;;;;;5073667;28;20030;-60
2021/11/10 06:25:26;;;;;;;20.33;12.32;;;8.30;76.80;;;;;;5072385;28;20099;-62
2021/11/10 06:27:51;;;;;;;20.52;11.77;;;8.40;76.60;;;;;;5073583;28;20017;-61
2021/11/10 06:30:17;;;;;;;18.35;11.18;;;8.40;76.40;;;;;;5073655;28;20032;-59
2021/11/10 06:32:45;;;;;;;22.70;11.85;;;8.40;76.20;;;;;;5072674;28;20031;-59
2021/11/10 06:35:12;;;;;;;20.55;11.60;;;8.40;76.10;;;;;;5073845;28;20591;-59
2021/11/10 06:37:38;;;;;;;21.77;11.48;;;8.50;75.90;;;;;;5071332;28;20029;-60
2021/11/10 06:40:05;;;;;;;20.63;12.02;;;8.50;75.80;;;;;;5070890;28;20341;-60
2021/11/10 06:42:30;;;;;;;21.58;11.85;;;8.50;75.60;;;;;;5072566;28;20048;-61
2021/11/10 06:44:56;;;;;;;22.55;12.35;;;8.60;75.50;;;;;;5072485;28;20020;-60
2021/11/10 06:47:24;;;;;;;20.33;11.07;;;8.60;75.40;;;;;;5071579;28;20032;-61
2021/11/10 06:49:50;;;;;;;15.60;10.65;;;8.60;75.30;;;;;;5071960;28;20032;-57
2021/11/10 06:52:16;;;;;;;18.73;9.98;;;8.70;74.90;;;;;;5071754;28;20082;-60
2021/11/10 06:54:42;;;;;;;17.38;10.70;;;8.70;74.80;;;;;;5062541;28;20498;-59
2021/11/10 06:57:08;;;;;;;18.88;10.68;;;8.70;74.50;;;;;;5052767;28;20040;-59
2021/11/10 06:59:34;;;;;;;16.45;10.20;;;8.80;74.30;;;;;;5051906;28;20029;-59
2021/11/10 07:01:59;;;;;;;14.43;9.85;;;8.90;74.00;;;;;;5052823;28;20482;-58
2021/11/10 07:04:25;;;;;;;20.00;9.40;;;9.00;73.60;;;;;;5052940;28;20025;-59
2021/11/10 07:06:51;;;;;;;18.73;9.50;;;9.10;73.20;;;;;;5034398;28;20067;-61
2021/11/10 07:09:35;;;;;;;13.73;9.18;;;9.10;72.80;;;;;;5052623;28;20025;-60
2021/11/10 07:12:02;;;;;;;16.15;9.15;;;9.20;72.80;;;;;;5052713;28;20103;-60
2021/11/10 07:14:27;;;;;;;26.17;10.20;;;9.70;72.20;;;;;;5034675;28;20033;-61
2021/11/10 07:16:54;;;;;;;15.00;13.38;;;11.80;67.10;;;;;;5052018;28;20033;-57
2021/11/10 07:19:21;;;;;;;14.27;11.77;;;14.10;58.30;;;;;;5034377;28;20033;-60
2021/11/10 07:21:47;;;;;;;13.45;11.95;;;15.50;53.30;;;;;;5033989;28;20036;-58
2021/11/10 07:24:13;;;;;;;16.23;14.15;;;16.60;50.20;;;;;;5034602;28;20029;-59
2021/11/10 07:26:38;;;;;;;17.77;15.70;;;17.30;48.60;;;;;;5051679;28;20504;-59
2021/11/10 07:29:04;;;;;;;19.48;17.48;;;17.80;46.90;;;;;;5034409;28;20025;-54
2021/11/10 07:31:31;;;;;;;16.10;14.40;;;18.40;45.40;;;;;;5052259;28;20033;-64
2021/11/10 07:33:59;;;;;;;14.20;12.50;;;18.80;44.10;;;;;;5034771;28;20035;-59
2021/11/10 07:36:26;;;;;;;14.15;12.00;;;18.70;43.40;;;;;;5051998;28;20033;-51
2021/11/10 07:38:53;;;;;;;16.42;12.07;;;17.90;43.70;;;;;;5033919;28;20031;-60
2021/11/10 07:41:38;;;;;;;12.80;9.13;;;16.40;46.40;;;;;;5052104;28;20032;-60
2021/11/10 07:44:07;;;;;;;14.80;7.15;;;15.10;49.50;;;;;;5034225;28;20087;-61
2021/11/10 07:46:33;;;;;;;14.95;9.00;;;14.20;52.30;;;;;;5051628;28;20053;-61
2021/11/10 07:49:00;;;;;;;14.82;8.63;;;13.50;54.20;;;;;;5052389;28;20075;-61
2021/11/10 07:51:26;;;;;;;18.15;9.52;;;13.20;55.70;;;;;;5052037;28;20091;-60
2021/11/10 07:53:52;;;;;;;16.00;9.40;;;12.80;56.80;;;;;;5051189;28;20099;-60
2021/11/10 07:56:17;;;;;;;17.45;8.52;;;12.60;57.70;;;;;;5052204;28;20021;-60
2021/11/10 07:58:44;;;;;;;13.05;8.15;;;12.30;58.30;;;;;;5051087;28;20029;-62
2021/11/10 08:01:11;;;;;;;13.10;8.45;;;12.20;59.10;;;;;;5051749;28;20039;-60
2021/11/10 08:03:37;;;;;;;12.95;8.20;;;12.00;59.80;;;;;;5051500;28;20029;-61
2021/11/10 08:06:07;;;;;;;13.27;8.43;;;11.70;60.40;;;;;;5051778;28;20025;-59
2021/11/10 08:08:35;;;;;;;14.13;9.00;;;11.60;61.20;;;;;;5034279;28;20021;-58
2021/11/10 08:11:05;;;;;;;13.50;7.93;;;11.50;61.40;;;;;;5017802;28;20500;-60
2021/11/10 08:13:30;;;;;;;12.75;7.82;;;11.40;61.80;;;;;;5033315;28;20029;-61
2021/11/10 08:15:58;;;;;;;16.52;7.93;;;11.30;62.30;;;;;;5050790;28;20428;-56
2021/11/10 08:18:25;;;;;;;15.27;7.00;;;11.20;62.40;;;;;;5051575;28;20017;-58
2021/11/10 08:20:52;;;;;;;15.10;7.28;;;11.20;62.40;;;;;;5032977;28;20037;-60
2021/11/10 08:23:24;;;;;;;13.60;7.38;;;11.20;62.50;;;;;;5051438;28;20091;-61
2021/11/10 08:25:52;;;;;;;15.25;7.00;;;11.20;63.30;;;;;;5032151;28;20120;-59
2021/11/10 08:28:18;;;;;;;14.48;7.40;;;11.10;62.80;;;;;;5051859;28;20021;-60
2021/11/10 08:30:45;;;;;;;12.95;7.80;;;11.10;62.80;;;;;;5051059;28;20444;-63
2021/11/10 08:33:10;;;;;;;12.65;8.07;;;11.20;63.20;;;;;;5051534;28;20363;-60
2021/11/10 08:35:36;;;;;;;12.15;7.70;;;11.10;62.90;;;;;;5033072;28;20035;-65
2021/11/10 08:38:03;;;;;;;12.55;7.70;;;11.20;62.90;;;;;;5033529;28;20385;-58
2021/11/10 08:40:29;;;;;;;10.70;7.10;;;11.10;63.10;;;;;;5051676;28;20061;-58
2021/11/10 08:42:55;;;;;;;14.00;8.25;;;11.20;63.10;;;;;;5032590;28;20036;-52
2021/11/10 08:45:28;;;;;;;13.95;7.88;;;11.30;62.90;;;;;;5033070;28;20386;-56
2021/11/10 08:47:58;;;;;;;14.18;7.75;;;11.30;62.90;;;;;;5050777;28;20025;-57
2021/11/10 08:50:26;;;;;;;10.98;7.95;;;11.30;62.70;;;;;;5033573;28;20128;-57
2021/11/10 08:52:53;;;;;;;12.48;6.72;;;11.40;62.70;;;;;;5050847;28;20031;-55
2021/11/10 08:55:19;;;;;;;12.75;7.53;;;11.40;62.30;;;;;;5058314;28;20048;-54
2021/11/10 08:57:49;;;;;;;13.68;7.68;;;11.40;62.50;;;;;;5069034;28;20025;-59
2021/11/10 09:00:19;;;;;;;15.82;8.32;;;11.40;62.50;;;;;;5070117;28;20029;-55
2021/11/10 09:02:45;;;;;;;13.55;7.57;;;11.40;62.60;;;;;;5071116;28;20127;-60
2021/11/10 09:05:12;;;;;;;13.32;7.35;;;11.40;62.60;;;;;;5074802;28;20037;-58
2021/11/10 09:07:38;;;;;;;11.88;7.50;;;11.40;62.60;;;;;;5074619;28;20021;-61
2021/11/10 09:10:06;;;;;;;17.60;8.10;;;11.50;62.70;;;;;;5074673;28;20040;-56
2021/11/10 09:12:32;;;;;;;13.13;7.22;;;11.60;62.60;;;;;;5074591;28;20385;-59
2021/11/10 09:14:59;;;;;;;13.50;7.15;;;11.60;62.20;;;;;;5074134;28;20028;-57
2021/11/10 09:17:24;;;;;;;16.00;8.07;;;11.60;62.30;;;;;;5073101;28;20029;-57
2021/11/10 09:19:50;;;;;;;15.20;8.10;;;11.60;62.60;;;;;;5073979;28;20033;-58
2021/11/10 09:22:16;;;;;;;18.27;8.52;;;11.60;62.70;;;;;;5074357;28;20028;-59
2021/11/10 09:24:41;;;;;;;15.52;7.90;;;11.60;62.70;;;;;;5073793;28;20029;-56
2021/11/10 09:27:07;;;;;;;14.50;8.60;;;11.60;62.50;;;;;;5073361;28;20020;-61
2021/11/10 09:29:33;;;;;;;13.20;8.15;;;11.70;62.50;;;;;;5074372;28;20048;-58
2021/11/10 09:32:00;;;;;;;13.40;9.00;;;11.70;62.40;;;;;;5073117;28;20031;-58
2021/11/10 09:34:26;;;;;;;11.98;7.75;;;11.70;62.40;;;;;;5073862;28;20530;-60
2021/11/10 09:36:52;;;;;;;14.07;9.55;;;11.70;62.30;;;;;;5074445;28;20496;-56
2021/11/10 09:39:21;;;;;;;18.35;9.98;;;11.80;62.30;;;;;;5074282;28;20025;-60
2021/11/10 09:41:49;;;;;;;19.48;13.75;;;11.80;62.10;;;;;;5072287;28;20504;-60
2021/11/10 09:44:16;;;;;;;11.55;7.22;;;12.10;61.70;;;;;;5073988;28;20039;-59
2021/11/10 09:46:42;;;;;;;9.98;7.60;;;12.10;61.10;;;;;;5073693;28;20036;-69
2021/11/10 09:49:10;;;;;;;14.38;7.97;;;12.10;61.10;;;;;;5073182;28;20151;-56
2021/11/10 09:51:38;;;;;;;11.68;8.00;;;12.10;61.00;;;;;;5074151;28;20099;-63
2021/11/10 09:54:41;;;;;;;13.65;8.18;;;12.10;60.90;;;;;;5069527;28;20174;-62
2021/11/10 09:57:07;;;;;;;13.13;7.78;;;12.10;60.70;;;;;;5035450;28;20028;-63
2021/11/10 09:59:33;;;;;;;15.48;8.90;;;12.10;60.80;;;;;;5053431;28;20099;-63
2021/11/10 10:01:59;;;;;;;21.17;8.40;;;12.00;61.20;;;;;;5035252;28;20467;-60
2021/11/10 10:04:26;;;;;;;12.23;7.95;;;12.10;61.20;;;;;;5053402;28;20029;-59
2021/11/10 10:06:53;;;;;;;9.93;6.82;;;12.20;61.10;;;;;;5053023;28;20053;-61
2021/11/10 10:09:19;;;;;;;12.32;8.18;;;12.30;60.70;;;;;;5053978;28;20033;-62
2021/11/10 10:11:45;;;;;;;14.10;7.78;;;12.30;60.40;;;;;;5035157;28;20032;-60
2021/11/10 10:14:11;;;;;;;13.30;7.82;;;12.40;60.20;;;;;;5035514;28;20227;-63
2021/11/10 10:16:37;;;;;;;13.50;8.45;;;12.40;60.30;;;;;;5035227;28;20152;-61
2021/11/10 10:19:11;;;;;;;14.70;8.13;;;12.50;59.60;;;;;;5052854;28;20037;-59
2021/11/10 10:21:41;;;;;;;13.10;8.18;;;12.60;59.70;;;;;;5052750;28;20029;-61
2021/11/10 10:24:12;;;;;;;17.67;8.43;;;12.70;58.90;;;;;;5035076;28;20033;-62
2021/11/10 10:26:38;;;;;;;15.48;8.65;;;12.70;58.90;;;;;;5053098;28;20029;-60
2021/11/10 10:29:09;;;;;;;15.55;9.60;;;12.80;59.00;;;;;;5052387;28;20052;-60
2021/11/10 10:31:39;;;;;;;15.25;9.18;;;13.00;58.90;;;;;;5034540;28;20017;-61
2021/11/10 10:34:10;;;;;;;13.85;9.65;;;13.10;58.60;;;;;;5051587;28;20208;-61
2021/11/10 10:36:42;;;;;;;17.55;8.65;;;13.10;58.00;;;;;;5052298;28;20107;-62
2021/11/10 10:39:13;;;;;;;12.35;8.40;;;13.10;58.30;;;;;;5034579;28;20032;-61
2021/11/10 10:41:46;;;;;;;14.95;8.68;;;13.20;57.70;;;;;;5035309;28;20033;-60
2021/11/10 10:44:15;;;;;;;15.93;8.82;;;13.20;58.50;;;;;;5052648;28;20029;-61
2021/11/10 10:47:02;;;;;;;14.35;8.77;;;13.10;58.10;;;;;;5052931;28;20029;-64
2021/11/10 10:49:50;;;;;;;17.20;8.57;;;13.20;57.90;;;;;;5052971;28;20029;-62
2021/11/10 10:52:19;;;;;;;12.10;8.30;;;13.20;57.60;;;;;;5052336;28;20020;-60
2021/11/10 10:54:48;;;;;;;12.55;8.35;;;13.30;57.80;;;;;;5049841;28;20057;-57
2021/11/10 10:57:16;;;;;;;13.70;8.48;;;13.70;56.70;;;;;;5070741;28;20218;-64
2021/11/10 10:59:42;;;;;;;17.30;8.02;;;14.00;55.80;;;;;;5071785;28;20477;-60
2021/11/10 11:02:07;;;;;;;11.43;7.82;;;13.80;55.60;;;;;;5070637;28;20064;-63
2021/11/10 11:04:40;;;;;;;14.02;8.80;;;13.60;55.80;;;;;;5070963;28;20477;-60
2021/11/10 11:07:08;;;;;;;13.30;9.23;;;13.40;56.80;;;;;;5071467;28;20051;-58
2021/11/10 11:09:39;;;;;;;16.23;9.68;;;13.30;57.10;;;;;;5072019;28;20035;-61
2021/11/10 11:12:31;;;;;;;15.90;8.60;;;13.20;57.70;;;;;;5069885;28;20461;-59
2021/11/10 11:15:07;;;;;;;11.85;9.00;;;13.20;57.60;;;;;;5071372;28;20024;-61
2021/11/10 11:17:35;;;;;;;15.82;9.00;;;13.20;57.90;;;;;;5070782;28;20147;-62
2021/11/10 11:20:05;;;;;;;14.10;9.68;;;13.20;57.70;;;;;;5071408;28;20469;-55
2021/11/10 11:22:57;;;;;;;12.88;9.45;;;13.20;57.90;;;;;;5072142;28;20517;-60
2021/11/10 11:25:38;;;;;;;12.40;8.95;;;13.00;58.30;;;;;;5067746;28;20044;-63
2021/11/10 11:28:05;;;;;;;15.15;10.07;;;13.00;58.60;;;;;;5070339;28;20028;-65
2021/11/10 11:30:36;;;;;;;12.55;9.18;;;13.00;58.50;;;;;;5070469;28;20032;-63
2021/11/10 11:33:07;;;;;;;12.18;8.88;;;13.00;58.50;;;;;;5070387;28;20025;-63
2021/11/10 11:35:40;;;;;;;14.80;9.23;;;13.10;58.40;;;;;;5071959;28;20032;-61
2021/11/10 11:38:11;;;;;;;14.50;8.47;;;13.20;58.30;;;;;;5071427;28;20088;-65
2021/11/10 11:40:38;;;;;;;15.60;8.13;;;13.20;57.80;;;;;;5071212;28;20383;-65
2021/11/10 11:43:08;;;;;;;12.40;8.57;;;13.20;58.10;;;;;;5071410;28;20024;-63
2021/11/10 11:45:39;;;;;;;13.73;9.13;;;13.30;57.90;;;;;;5071617;28;20150;-60
2021/11/10 11:48:08;;;;;;;20.25;9.32;;;13.80;56.70;;;;;;5071133;28;20020;-61
2021/11/10 11:50:34;;;;;;;16.45;8.75;;;14.40;54.90;;;;;;5072068;28;20029;-63
2021/11/10 11:53:00;;;;;;;14.40;8.25;;;14.60;53.00;;;;;;5071317;28;20020;-60
2021/11/10 11:55:32;;;;;;;13.52;8.48;;;14.30;53.60;;;;;;5070162;28;20140;-61
2021/11/10 11:58:08;;;;;;;12.32;7.38;;;14.20;54.30;;;;;;5071342;28;20050;-63
2021/11/10 12:00:42;;;;;;;12.15;7.47;;;14.00;54.70;;;;;;5071636;28;20094;-58
2021/11/10 12:03:20;;;;;;;15.88;8.38;;;13.70;55.20;;;;;;5070807;28;20021;-62
2021/11/10 12:05:47;;;;;;;13.18;8.25;;;13.70;55.70;;;;;;5071257;28;20122;-61
2021/11/10 12:08:13;;;;;;;14.82;8.38;;;13.70;55.60;;;;;;5068240;28;20036;-61
2021/11/10 12:10:41;;;;;;;12.77;8.10;;;13.70;55.40;;;;;;5070679;28;20083;-58
2021/11/10 12:13:37;;;;;;;16.30;8.40;;;13.70;55.10;;;;;;5071545;28;20032;-63
2021/11/10 12:16:18;;;;;;;13.65;8.35;;;13.90;55.30;;;;;;5070491;28;20071;-61
2021/11/10 12:18:46;;;;;;;15.88;7.65;;;13.70;55.50;;;;;;5071493;28;20054;-60
2021/11/10 12:21:14;;;;;;;17.52;9.27;;;13.60;56.00;;;;;;5069491;28;20107;-61
2021/11/10 12:23:55;;;;;;;18.63;8.52;;;13.50;56.20;;;;;;5071534;28;20029;-61
2021/11/10 12:26:27;;;;;;;15.40;9.05;;;13.60;56.00;;;;;;5071052;28;20496;-61
2021/11/10 12:29:01;;;;;;;16.05;9.55;;;13.60;56.00;;;;;;5070824;28;20020;-69
2021/11/10 12:31:39;;;;;;;18.95;9.77;;;13.60;56.20;;;;;;5071340;28;20025;-64
2021/11/10 12:34:28;;;;;;;14.38;8.52;;;13.50;56.60;;;;;;5071001;28;20458;-62
2021/11/10 12:37:04;;;;;;;13.45;8.80;;;13.50;56.90;;;;;;5069755;28;20036;-62
2021/11/10 12:39:40;;;;;;;15.07;10.07;;;13.50;56.60;;;;;;5075427;28;20181;-61
2021/11/10 12:42:10;;;;;;;14.15;8.98;;;13.40;57.00;;;;;;5073330;28;20493;-61
2021/11/10 12:44:40;;;;;;;16.90;10.90;;;13.40;56.80;;;;;;5074659;28;20020;-62